Time;durP1;ratioP1;P1;durP2;ratioP2;P2;SDS_P1;SDS_P2;PMS_P1;PMS_P2;Temp;Humidity;BMP_temperature;BMP_pressure;BME280_temperature;BME280_humidity;BME280_pressure;Samples;Min_cycle;Max_cycle;Signal;HPM_P1;HPM_P2
2023/02/28 00:01:09;;;;;;;2.60;2.35;;;;;;;;;;5053777;28;20681;-75
2023/02/28 00:03:36;;;;;;;6.50;3.42;;;;;;;;;;5053465;28;20203;-75
2023/02/28 00:06:03;;;;;;;4.70;2.78;;;;;;;;;;5053799;28;20200;-75
2023/02/28 00:08:31;;;;;;;6.15;2.95;;;;;;;;;;5065432;22;20599;-75
2023/02/28 00:10:58;;;;;;;3.95;2.35;;;;;;;;;;5047314;28;20316;-75
2023/02/28 00:13:25;;;;;;;2.80;2.10;;;;;;;;;;5052930;28;20198;-75
2023/02/28 00:16:01;;;;;;;2.45;2.22;;;;;;;;;;5053389;28;20356;-75
2023/02/28 00:18:28;;;;;;;3.08;2.40;;;;;;;;;;5053164;28;20313;-75
2023/02/28 00:20:55;;;;;;;2.13;1.92;;;;;;;;;;5053776;28;20294;-75
2023/02/28 00:23:23;;;;;;;5.75;3.80;;;;;;;;;;5053534;28;20293;-75
2023/02/28 00:25:50;;;;;;;4.18;2.88;;;;;;;;;;5051467;28;20235;-74
2023/02/28 00:28:17;;;;;;;4.35;2.60;;;;;;;;;;5053372;28;20223;-75
2023/02/28 00:30:45;;;;;;;3.75;1.98;;;;;;;;;;5051178;28;20210;-75
2023/02/28 00:33:14;;;;;;;4.35;2.20;;;;;;;;;;5053093;28;20570;-75
2023/02/28 00:35:41;;;;;;;5.25;2.10;;;;;;;;;;5053074;28;20264;-75
2023/02/28 00:38:08;;;;;;;2.70;2.35;;;;;;;;;;5050566;28;20222;-75
2023/02/28 00:40:35;;;;;;;8.52;2.80;;;;;;;;;;5053282;28;20209;-75
2023/02/28 00:43:03;;;;;;;2.25;1.75;;;;;;;;;;5040268;28;20291;-75
2023/02/28 00:45:30;;;;;;;3.80;2.20;;;;;;;;;;5033210;28;20203;-75
2023/02/28 00:47:57;;;;;;;4.57;2.25;;;;;;;;;;5032147;28;20566;-74
2023/02/28 00:50:25;;;;;;;2.70;2.10;;;;;;;;;;5047377;28;20203;-75
2023/02/28 00:52:52;;;;;;;3.60;2.30;;;;;;;;;;5048112;28;20230;-75
2023/02/28 00:55:19;;;;;;;2.13;1.92;;;;;;;;;;5033089;28;20199;-75
2023/02/28 00:57:47;;;;;;;3.10;2.08;;;;;;;;;;5031663;28;20196;-75
2023/02/28 01:00:14;;;;;;;2.30;2.10;;;;;;;;;;5032603;28;20227;-75
2023/02/28 01:02:41;;;;;;;2.50;2.30;;;;;;;;;;5032378;28;20200;-75
2023/02/28 01:05:09;;;;;;;1.80;1.65;;;;;;;;;;5032887;28;20199;-76
2023/02/28 01:07:38;;;;;;;2.50;2.08;;;;;;;;;;5032623;28;20657;-75
2023/02/28 01:10:05;;;;;;;2.42;2.22;;;;;;;;;;5048003;28;20254;-75
2023/02/28 01:12:32;;;;;;;3.60;2.05;;;;;;;;;;5052157;28;20245;-75
2023/02/28 01:14:59;;;;;;;2.53;1.90;;;;;;;;;;5050452;28;20195;-75
2023/02/28 01:17:27;;;;;;;2.75;1.90;;;;;;;;;;5052482;28;20237;-75
2023/02/28 01:19:55;;;;;;;2.10;1.90;;;;;;;;;;5050185;28;20229;-75
2023/02/28 01:22:22;;;;;;;3.40;2.50;;;;;;;;;;5049378;28;20198;-75
2023/02/28 01:24:50;;;;;;;4.15;2.35;;;;;;;;;;5052447;28;20195;-75
2023/02/28 01:27:17;;;;;;;3.95;2.45;;;;;;;;;;5050420;28;20202;-75
2023/02/28 01:29:45;;;;;;;2.08;1.80;;;;;;;;;;5051235;28;20222;-75
2023/02/28 01:32:12;;;;;;;3.42;2.13;;;;;;;;;;5051170;28;20309;-75
2023/02/28 01:34:39;;;;;;;2.20;2.00;;;;;;;;;;5051967;28;20209;-75
2023/02/28 01:37:06;;;;;;;2.88;1.77;;;;;;;;;;5052171;28;20668;-75
2023/02/28 01:39:33;;;;;;;2.53;2.00;;;;;;;;;;5052051;28;20219;-75
2023/02/28 01:42:02;;;;;;;3.80;2.45;;;;;;;;;;5051929;28;20592;-75
2023/02/28 01:44:47;;;;;;;2.15;1.95;;;;;;;;;;5050081;28;20203;-75
2023/02/28 01:47:14;;;;;;;3.85;2.00;;;;;;;;;;5049593;28;20202;-75
2023/02/28 01:49:42;;;;;;;4.32;3.45;;;;;;;;;;5051967;28;20305;-75
2023/02/28 01:52:09;;;;;;;2.40;2.20;;;;;;;;;;5048386;28;20222;-75
2023/02/28 01:54:36;;;;;;;2.45;2.10;;;;;;;;;;5032102;28;20291;-75
2023/02/28 01:57:08;;;;;;;3.45;1.90;;;;;;;;;;5031939;28;20672;-75
2023/02/28 01:59:38;;;;;;;3.65;2.05;;;;;;;;;;5029900;28;20214;-75
2023/02/28 02:02:11;;;;;;;2.25;2.03;;;;;;;;;;5030568;28;20652;-75
2023/02/28 02:04:40;;;;;;;9.27;2.33;;;;;;;;;;5030864;28;20203;-75
2023/02/28 02:07:07;;;;;;;3.10;2.40;;;;;;;;;;5034816;28;20205;-75
2023/02/28 02:09:35;;;;;;;2.67;2.35;;;;;;;;;;5051708;28;20230;-75
2023/02/28 02:12:08;;;;;;;2.55;1.83;;;;;;;;;;5051327;28;20305;-75
2023/02/28 02:14:49;;;;;;;3.08;2.75;;;;;;;;;;5049217;28;20206;-75
2023/02/28 02:17:21;;;;;;;4.45;2.72;;;;;;;;;;5031289;28;20207;-75
2023/02/28 02:20:03;;;;;;;2.80;2.17;;;;;;;;;;5031047;28;20644;-75
2023/02/28 02:22:42;;;;;;;2.70;2.08;;;;;;;;;;5031686;28;20254;-74
2023/02/28 02:25:17;;;;;;;3.15;2.40;;;;;;;;;;5030725;28;20620;-75
2023/02/28 02:28:00;;;;;;;2.15;1.95;;;;;;;;;;5031904;28;20213;-75
2023/02/28 02:30:46;;;;;;;5.85;2.22;;;;;;;;;;5030671;28;20203;-75
2023/02/28 02:33:28;;;;;;;9.45;2.35;;;;;;;;;;5031261;28;20306;-75
2023/02/28 02:35:58;;;;;;;3.90;2.58;;;;;;;;;;5018992;28;20199;-75
2023/02/28 02:38:32;;;;;;;2.13;1.90;;;;;;;;;;5031258;28;20223;-75
2023/02/28 02:41:07;;;;;;;2.30;2.10;;;;;;;;;;5031727;28;20203;-75
2023/02/28 02:43:37;;;;;;;2.03;1.85;;;;;;;;;;5030623;28;20203;-75
2023/02/28 02:46:06;;;;;;;4.95;2.30;;;;;;;;;;5031090;28;20234;-75
2023/02/28 02:48:35;;;;;;;1.90;1.80;;;;;;;;;;5031662;28;20229;-75
2023/02/28 02:51:05;;;;;;;5.22;2.42;;;;;;;;;;5040804;28;20616;-75
2023/02/28 02:53:36;;;;;;;3.47;2.08;;;;;;;;;;5035001;28;20438;-75
2023/02/28 02:56:05;;;;;;;2.10;1.90;;;;;;;;;;5031496;28;20727;-75
2023/02/28 02:58:35;;;;;;;2.47;2.05;;;;;;;;;;5047422;28;20330;-75
2023/02/28 03:01:03;;;;;;;2.60;2.20;;;;;;;;;;5051201;28;20281;-75
2023/02/28 03:03:32;;;;;;;3.47;2.35;;;;;;;;;;5034672;28;20199;-75
2023/02/28 03:06:00;;;;;;;2.58;1.90;;;;;;;;;;5031068;28;20195;-75
2023/02/28 03:08:30;;;;;;;2.35;1.92;;;;;;;;;;5050847;28;20659;-75
2023/02/28 03:10:58;;;;;;;2.75;2.15;;;;;;;;;;5052931;28;20720;-75
2023/02/28 03:13:38;;;;;;;2.00;1.75;;;;;;;;;;5053002;28;20385;-75
2023/02/28 03:16:15;;;;;;;3.55;2.03;;;;;;;;;;5055129;28;20471;-75
2023/02/28 03:18:45;;;;;;;6.10;2.13;;;;;;;;;;5039769;28;20298;-75
2023/02/28 03:21:17;;;;;;;2.95;1.90;;;;;;;;;;5041929;28;20226;-75
2023/02/28 03:23:47;;;;;;;2.22;1.60;;;;;;;;;;5050828;28;20195;-75
2023/02/28 03:26:20;;;;;;;2.42;1.90;;;;;;;;;;5053359;28;20285;-75
2023/02/28 03:28:52;;;;;;;2.42;2.03;;;;;;;;;;5033411;28;20643;-75
2023/02/28 03:31:20;;;;;;;2.65;2.45;;;;;;;;;;5034499;28;20380;-75
2023/02/28 03:33:54;;;;;;;2.00;1.80;;;;;;;;;;5044016;28;20579;-75
2023/02/28 03:36:23;;;;;;;2.47;2.28;;;;;;;;;;5055087;28;20187;-75
2023/02/28 03:38:55;;;;;;;4.10;2.13;;;;;;;;;;5052387;28;20245;-75
2023/02/28 03:41:23;;;;;;;2.42;2.10;;;;;;;;;;5054313;28;20194;-75
2023/02/28 03:43:53;;;;;;;4.18;2.17;;;;;;;;;;5054283;28;20223;-75
2023/02/28 03:46:22;;;;;;;2.75;1.80;;;;;;;;;;5033894;28;20210;-75
2023/02/28 03:48:50;;;;;;;2.92;1.63;;;;;;;;;;5034039;28;20227;-75
2023/02/28 03:51:19;;;;;;;3.90;2.33;;;;;;;;;;5033941;28;20203;-75
2023/02/28 03:53:49;;;;;;;2.83;2.00;;;;;;;;;;5033188;28;20219;-75
2023/02/28 03:56:19;;;;;;;3.70;2.45;;;;;;;;;;5053810;28;20246;-75
2023/02/28 03:58:50;;;;;;;2.97;2.17;;;;;;;;;;5054297;28;20223;-75
2023/02/28 04:01:20;;;;;;;3.50;2.25;;;;;;;;;;5053746;28;20214;-75
2023/02/28 04:03:48;;;;;;;2.20;2.00;;;;;;;;;;5053790;28;20615;-75
2023/02/28 04:06:17;;;;;;;2.40;1.90;;;;;;;;;;5054183;28;20207;-75
2023/02/28 04:08:44;;;;;;;4.55;2.25;;;;;;;;;;5052883;28;20269;-75
2023/02/28 04:11:18;;;;;;;1.92;1.75;;;;;;;;;;5046821;28;20206;-75
2023/02/28 04:13:46;;;;;;;2.70;2.10;;;;;;;;;;5049331;28;20310;-75
2023/02/28 04:16:14;;;;;;;2.97;2.65;;;;;;;;;;5053737;28;20289;-75
2023/02/28 04:18:42;;;;;;;2.67;2.40;;;;;;;;;;5053697;28;20302;-75
2023/02/28 04:21:10;;;;;;;2.65;2.20;;;;;;;;;;5052158;28;20203;-75
2023/02/28 04:23:37;;;;;;;3.28;2.20;;;;;;;;;;5051316;28;20294;-75
2023/02/28 04:26:05;;;;;;;2.45;2.25;;;;;;;;;;5048375;28;20631;-75
2023/02/28 04:28:32;;;;;;;3.88;2.45;;;;;;;;;;5033522;28;20237;-75
2023/02/28 04:31:01;;;;;;;5.65;2.80;;;;;;;;;;5032789;28;20513;-75
2023/02/28 04:33:29;;;;;;;3.50;2.30;;;;;;;;;;5040231;28;20676;-75
2023/02/28 04:36:00;;;;;;;4.63;2.50;;;;;;;;;;5052908;28;20301;-75
2023/02/28 04:38:27;;;;;;;2.60;2.40;;;;;;;;;;5049557;28;20229;-75
2023/02/28 04:40:54;;;;;;;4.90;2.33;;;;;;;;;;5033009;28;20203;-75
2023/02/28 04:43:21;;;;;;;3.15;2.30;;;;;;;;;;5045743;28;20236;-75
2023/02/28 04:45:48;;;;;;;4.20;2.33;;;;;;;;;;5053341;28;20222;-75
2023/02/28 04:48:17;;;;;;;2.95;2.35;;;;;;;;;;5052120;28;20215;-75
2023/02/28 04:50:44;;;;;;;3.78;2.63;;;;;;;;;;5052136;28;20298;-75
2023/02/28 04:53:11;;;;;;;3.65;2.85;;;;;;;;;;5052045;28;20210;-74
2023/02/28 04:55:39;;;;;;;4.70;2.13;;;;;;;;;;5053263;28;20634;-75
2023/02/28 04:58:07;;;;;;;2.88;2.30;;;;;;;;;;5050838;28;20288;-75
2023/02/28 05:00:34;;;;;;;4.57;3.35;;;;;;;;;;5053215;28;20588;-75
2023/02/28 05:03:01;;;;;;;2.42;2.13;;;;;;;;;;5052459;28;20222;-75
2023/02/28 05:05:30;;;;;;;2.45;2.25;;;;;;;;;;5049768;28;20191;-75
2023/02/28 05:07:57;;;;;;;3.40;2.67;;;;;;;;;;5052434;28;20298;-75
2023/02/28 05:10:24;;;;;;;6.68;2.25;;;;;;;;;;5051983;28;20202;-75
2023/02/28 05:12:51;;;;;;;2.75;2.08;;;;;;;;;;5051949;28;20211;-75
2023/02/28 05:15:19;;;;;;;2.90;2.60;;;;;;;;;;5051019;28;20230;-75
2023/02/28 05:17:46;;;;;;;4.75;2.30;;;;;;;;;;5052642;28;20202;-75
2023/02/28 05:20:14;;;;;;;3.13;2.83;;;;;;;;;;5051200;28;20195;-75
2023/02/28 05:22:42;;;;;;;2.63;2.25;;;;;;;;;;5052387;28;20258;-75
2023/02/28 05:25:12;;;;;;;2.17;2.00;;;;;;;;;;5051945;28;20285;-75
2023/02/28 05:27:39;;;;;;;2.35;2.15;;;;;;;;;;5052526;28;20202;-74
2023/02/28 05:30:10;;;;;;;5.43;2.75;;;;;;;;;;5048131;28;20222;-75
2023/02/28 05:32:37;;;;;;;3.65;2.40;;;;;;;;;;5031546;28;20246;-74
2023/02/28 05:35:04;;;;;;;2.70;2.50;;;;;;;;;;5032378;28;21040;-75
2023/02/28 05:37:32;;;;;;;2.88;2.60;;;;;;;;;;5044682;28;20209;-75
2023/02/28 05:40:00;;;;;;;2.67;2.40;;;;;;;;;;5052137;28;20215;-75
2023/02/28 05:42:28;;;;;;;4.18;2.47;;;;;;;;;;5051885;28;20241;-75
2023/02/28 05:44:55;;;;;;;2.58;2.30;;;;;;;;;;5035704;28;20568;-75
2023/02/28 05:47:22;;;;;;;3.08;2.50;;;;;;;;;;5031271;28;20198;-75
2023/02/28 05:49:49;;;;;;;3.65;2.50;;;;;;;;;;5034939;28;20215;-74
2023/02/28 05:52:16;;;;;;;2.38;1.92;;;;;;;;;;5049622;28;20213;-75
2023/02/28 05:54:43;;;;;;;2.38;2.05;;;;;;;;;;5032228;28;20203;-75
2023/02/28 05:57:12;;;;;;;2.55;2.20;;;;;;;;;;5031324;28;20209;-74
2023/02/28 05:59:39;;;;;;;3.63;2.17;;;;;;;;;;5031968;28;20215;-75
2023/02/28 06:02:06;;;;;;;3.17;2.58;;;;;;;;;;5033027;28;20207;-75
2023/02/28 06:04:34;;;;;;;4.18;2.60;;;;;;;;;;5051977;28;20205;-75
2023/02/28 06:07:01;;;;;;;3.28;2.30;;;;;;;;;;5051667;28;20198;-75
2023/02/28 06:09:28;;;;;;;2.58;2.10;;;;;;;;;;5066514;22;20237;-74
2023/02/28 06:11:56;;;;;;;3.40;2.10;;;;;;;;;;5050676;28;20209;-74
2023/02/28 06:14:24;;;;;;;3.10;2.20;;;;;;;;;;5051693;28;20218;-74
2023/02/28 06:16:51;;;;;;;2.85;2.30;;;;;;;;;;5051206;28;20233;-74
2023/02/28 06:19:18;;;;;;;4.45;2.75;;;;;;;;;;5049955;28;20219;-74
2023/02/28 06:21:46;;;;;;;3.47;2.50;;;;;;;;;;5050542;28;20497;-73
2023/02/28 06:24:13;;;;;;;4.35;2.72;;;;;;;;;;5042232;28;20282;-74
2023/02/28 06:26:40;;;;;;;7.63;2.88;;;;;;;;;;5031849;28;20241;-74
2023/02/28 06:29:08;;;;;;;5.93;2.38;;;;;;;;;;5031350;28;20254;-75
2023/02/28 06:31:36;;;;;;;3.95;2.65;;;;;;;;;;5050009;28;20656;-76
2023/02/28 06:34:03;;;;;;;3.80;2.25;;;;;;;;;;5048555;28;20245;-76
2023/02/28 06:36:32;;;;;;;3.10;2.60;;;;;;;;;;5049161;28;20194;-76
2023/02/28 06:39:00;;;;;;;2.33;2.13;;;;;;;;;;5032773;28;20258;-75
2023/02/28 06:41:27;;;;;;;3.17;2.28;;;;;;;;;;5042617;28;20277;-75
2023/02/28 06:43:55;;;;;;;2.80;2.13;;;;;;;;;;5051291;28;20191;-75
2023/02/28 06:46:22;;;;;;;3.25;2.00;;;;;;;;;;5055292;28;20198;-75
2023/02/28 06:48:51;;;;;;;2.80;2.33;;;;;;;;;;5055150;28;20293;-76
2023/02/28 06:51:20;;;;;;;2.78;2.25;;;;;;;;;;5054491;28;20652;-76
2023/02/28 06:53:47;;;;;;;4.72;2.08;;;;;;;;;;5036832;28;20707;-76
2023/02/28 06:56:15;;;;;;;4.57;2.20;;;;;;;;;;5046741;28;20229;-76
2023/02/28 06:58:43;;;;;;;2.30;1.95;;;;;;;;;;5053432;28;20222;-74
2023/02/28 07:01:10;;;;;;;4.10;2.17;;;;;;;;;;5054380;28;20202;-75
2023/02/28 07:03:38;;;;;;;2.58;2.03;;;;;;;;;;5054067;28;20218;-75
2023/02/28 07:06:07;;;;;;;3.83;2.63;;;;;;;;;;5050165;28;20561;-76
2023/02/28 07:08:35;;;;;;;4.15;2.60;;;;;;;;;;5048820;28;20293;-75
2023/02/28 07:11:02;;;;;;;3.40;2.28;;;;;;;;;;5046319;28;20587;-75
2023/02/28 07:13:30;;;;;;;2.92;2.63;;;;;;;;;;5052683;28;20214;-75
2023/02/28 07:15:58;;;;;;;3.50;2.90;;;;;;;;;;5051108;28;20632;-77
2023/02/28 07:18:38;;;;;;;3.22;2.40;;;;;;;;;;5054419;28;20447;-75
2023/02/28 07:21:09;;;;;;;5.03;2.80;;;;;;;;;;5053954;28;20269;-75
2023/02/28 07:23:37;;;;;;;5.13;2.85;;;;;;;;;;5049915;28;20187;-76
2023/02/28 07:26:05;;;;;;;3.33;3.03;;;;;;;;;;5054832;28;20199;-75
2023/02/28 07:28:32;;;;;;;2.63;2.28;;;;;;;;;;5054377;28;20704;-76
2023/02/28 07:31:04;;;;;;;4.80;2.30;;;;;;;;;;5054193;28;20199;-75
2023/02/28 07:33:31;;;;;;;5.13;2.97;;;;;;;;;;5054208;28;20225;-75
2023/02/28 07:36:02;;;;;;;4.30;2.63;;;;;;;;;;5052805;28;20719;-76
2023/02/28 07:38:30;;;;;;;3.35;2.42;;;;;;;;;;5037846;28;20221;-75
2023/02/28 07:40:57;;;;;;;3.28;2.97;;;;;;;;;;5050431;28;20282;-76
2023/02/28 07:43:24;;;;;;;4.55;2.33;;;;;;;;;;5045853;28;20195;-76
2023/02/28 07:45:51;;;;;;;2.95;2.60;;;;;;;;;;5037877;28;20245;-76
2023/02/28 07:48:19;;;;;;;4.25;2.63;;;;;;;;;;5053850;28;20203;-75
2023/02/28 07:50:52;;;;;;;2.70;2.20;;;;;;;;;;5054499;28;20256;-76
2023/02/28 07:53:19;;;;;;;3.28;2.25;;;;;;;;;;5052333;28;20293;-75
2023/02/28 07:55:48;;;;;;;3.45;2.50;;;;;;;;;;5052979;28;20195;-76
2023/02/28 07:58:15;;;;;;;2.50;2.30;;;;;;;;;;5053727;28;20201;-76
2023/02/28 08:00:42;;;;;;;3.63;2.47;;;;;;;;;;5051074;28;20199;-76
2023/02/28 08:03:10;;;;;;;3.17;2.42;;;;;;;;;;5053731;28;20694;-75
2023/02/28 08:05:39;;;;;;;4.43;3.65;;;;;;;;;;5036627;28;20195;-77
2023/02/28 08:08:06;;;;;;;3.63;2.55;;;;;;;;;;5054786;28;20194;-76
2023/02/28 08:10:34;;;;;;;3.80;2.60;;;;;;;;;;5056935;28;20206;-75
2023/02/28 08:13:02;;;;;;;5.40;2.90;;;;;;;;;;5053452;28;20277;-76
2023/02/28 08:15:29;;;;;;;4.00;2.28;;;;;;;;;;5050111;28;20297;-75
2023/02/28 08:17:56;;;;;;;3.10;2.58;;;;;;;;;;5032545;28;20210;-76
2023/02/28 08:20:24;;;;;;;2.90;2.13;;;;;;;;;;5047539;28;20229;-74
2023/02/28 08:22:51;;;;;;;2.88;1.90;;;;;;;;;;5052688;28;20285;-76
2023/02/28 08:25:18;;;;;;;3.65;2.58;;;;;;;;;;5053207;28;20572;-76
2023/02/28 08:27:45;;;;;;;2.30;2.00;;;;;;;;;;5035523;28;20227;-76
2023/02/28 08:30:15;;;;;;;2.85;2.60;;;;;;;;;;5033898;28;20225;-76
2023/02/28 08:32:42;;;;;;;2.42;2.22;;;;;;;;;;5039460;28;20278;-76
2023/02/28 08:35:10;;;;;;;2.25;1.80;;;;;;;;;;5051200;28;20309;-78
2023/02/28 08:37:37;;;;;;;3.60;2.38;;;;;;;;;;5052172;28;20198;-78
2023/02/28 08:40:04;;;;;;;4.10;2.55;;;;;;;;;;5052233;28;20219;-81
2023/02/28 08:42:33;;;;;;;2.80;1.98;;;;;;;;;;5044055;28;20286;-77
2023/02/28 08:45:00;;;;;;;3.38;2.92;;;;;;;;;;5033235;28;20191;-78
2023/02/28 08:47:29;;;;;;;3.60;2.58;;;;;;;;;;5033762;28;20286;-77
2023/02/28 08:49:56;;;;;;;2.47;2.20;;;;;;;;;;5053093;28;20305;-82
2023/02/28 08:52:23;;;;;;;2.10;1.90;;;;;;;;;;5050720;28;20194;-78
2023/02/28 08:54:50;;;;;;;2.13;1.65;;;;;;;;;;5050532;28;20915;-77
2023/02/28 08:57:18;;;;;;;2.60;2.40;;;;;;;;;;5052349;28;20202;-78
2023/02/28 08:59:45;;;;;;;2.97;1.75;;;;;;;;;;5052188;28;20227;-79
2023/02/28 09:02:13;;;;;;;4.40;2.05;;;;;;;;;;5052652;28;20683;-77
2023/02/28 09:04:45;;;;;;;1.98;1.77;;;;;;;;;;5040853;28;20249;-76
2023/02/28 09:07:12;;;;;;;2.30;1.80;;;;;;;;;;5032973;28;20195;-76
2023/02/28 09:09:53;;;;;;;2.35;1.70;;;;;;;;;;5032049;28;20237;-77
2023/02/28 09:12:20;;;;;;;2.25;1.73;;;;;;;;;;5032433;28;20205;-77
2023/02/28 09:14:47;;;;;;;2.90;1.90;;;;;;;;;;5032401;28;20223;-77
2023/02/28 09:17:14;;;;;;;1.60;1.50;;;;;;;;;;5032466;28;20203;-78
2023/02/28 09:19:43;;;;;;;4.28;1.65;;;;;;;;;;5044299;28;20226;-77
2023/02/28 09:22:10;;;;;;;2.55;1.92;;;;;;;;;;5051936;28;20205;-77
2023/02/28 09:24:37;;;;;;;2.75;1.85;;;;;;;;;;5049304;28;20221;-83
2023/02/28 09:27:05;;;;;;;1.70;1.60;;;;;;;;;;5034328;28;20671;-77
2023/02/28 09:29:32;;;;;;;1.90;1.70;;;;;;;;;;5049406;28;20226;-76
2023/02/28 09:31:59;;;;;;;1.85;1.60;;;;;;;;;;5051344;28;20210;-78
2023/02/28 09:34:27;;;;;;;1.95;1.63;;;;;;;;;;5052205;28;20210;-78
2023/02/28 09:36:55;;;;;;;1.65;1.55;;;;;;;;;;5051797;28;20206;-77
2023/02/28 09:39:23;;;;;;;1.80;1.40;;;;;;;;;;5051833;28;20215;-77
2023/02/28 09:41:51;;;;;;;2.72;1.60;;;;;;;;;;5052196;28;20716;-77
2023/02/28 09:44:22;;;;;;;1.50;1.40;;;;;;;;;;5051973;28;20206;-77
2023/02/28 09:46:52;;;;;;;2.60;1.60;;;;;;;;;;5042709;28;20200;-77
2023/02/28 09:49:21;;;;;;;4.28;1.98;;;;;;;;;;5050232;28;20309;-77
2023/02/28 09:51:51;;;;;;;4.68;2.05;;;;;;;;;;5050297;28;20285;-77
2023/02/28 09:54:21;;;;;;;2.20;1.85;;;;;;;;;;5035072;28;20691;-77
2023/02/28 09:56:52;;;;;;;2.53;1.70;;;;;;;;;;5051390;28;20312;-75
2023/02/28 09:59:25;;;;;;;2.22;1.80;;;;;;;;;;5051718;28;20592;-77
2023/02/28 10:01:59;;;;;;;2.15;1.95;;;;;;;;;;5049424;28;20240;-72
2023/02/28 10:04:35;;;;;;;4.80;1.90;;;;;;;;;;5046675;28;20731;-78
2023/02/28 10:07:04;;;;;;;2.25;1.75;;;;;;;;;;5031991;28;20235;-77
2023/02/28 10:09:34;;;;;;;3.25;1.70;;;;;;;;;;5046816;28;20226;-76
2023/02/28 10:12:04;;;;;;;2.05;1.85;;;;;;;;;;5051462;28;20264;-80
2023/02/28 10:14:34;;;;;;;1.98;1.75;;;;;;;;;;5051262;28;20218;-76
2023/02/28 10:17:03;;;;;;;2.00;1.80;;;;;;;;;;5045680;28;20202;-75
2023/02/28 10:19:34;;;;;;;2.97;1.90;;;;;;;;;;5045564;28;20238;-75
2023/02/28 10:22:02;;;;;;;2.92;2.03;;;;;;;;;;5045826;28;20194;-75
2023/02/28 10:24:31;;;;;;;3.58;1.95;;;;;;;;;;5041177;28;20190;-75
2023/02/28 10:27:01;;;;;;;1.88;1.70;;;;;;;;;;5051844;28;20214;-76
2023/02/28 10:29:29;;;;;;;3.00;1.98;;;;;;;;;;5048770;28;20226;-76
2023/02/28 10:32:03;;;;;;;2.47;1.83;;;;;;;;;;5049921;28;20195;-77
2023/02/28 10:34:31;;;;;;;2.60;2.40;;;;;;;;;;5042297;28;20214;-75
2023/02/28 10:37:06;;;;;;;3.70;2.35;;;;;;;;;;5031512;28;20571;-76
2023/02/28 10:39:41;;;;;;;2.28;2.08;;;;;;;;;;5034599;28;20218;-73
2023/02/28 10:42:25;;;;;;;2.33;2.13;;;;;;;;;;5046015;28;20221;-75
2023/02/28 10:45:05;;;;;;;3.97;2.50;;;;;;;;;;5049785;28;20198;-75
2023/02/28 10:47:34;;;;;;;7.78;2.65;;;;;;;;;;5045007;28;20205;-76
2023/02/28 10:50:02;;;;;;;5.15;2.60;;;;;;;;;;5045394;28;20223;-76
2023/02/28 10:52:37;;;;;;;4.30;2.03;;;;;;;;;;5046657;28;20198;-76
2023/02/28 10:55:21;;;;;;;2.75;1.95;;;;;;;;;;5050450;28;20218;-75
2023/02/28 10:57:50;;;;;;;3.38;1.83;;;;;;;;;;5042787;28;20203;-74
2023/02/28 11:00:18;;;;;;;3.42;1.85;;;;;;;;;;5048500;28;20225;-74
2023/02/28 11:02:46;;;;;;;2.75;2.13;;;;;;;;;;5048344;28;20195;-75
2023/02/28 11:05:27;;;;;;;2.17;1.70;;;;;;;;;;5041364;28;20652;-75
2023/02/28 11:07:54;;;;;;;3.15;1.80;;;;;;;;;;5035906;28;20719;-75
2023/02/28 11:10:23;;;;;;;2.15;1.95;;;;;;;;;;5049803;28;20309;-76
2023/02/28 11:12:56;;;;;;;3.45;2.08;;;;;;;;;;5050165;28;20574;-75
2023/02/28 11:18:27;;;;;;;3.30;2.05;;;;;;;;;;5030448;28;20199;-77
2023/02/28 11:20:56;;;;;;;3.70;2.33;;;;;;;;;;5046003;28;20210;-74
2023/02/28 11:23:27;;;;;;;2.60;1.98;;;;;;;;;;5048401;28;20201;-75
2023/02/28 11:25:56;;;;;;;2.50;2.30;;;;;;;;;;5050674;28;20663;-77
2023/02/28 11:28:30;;;;;;;3.45;2.75;;;;;;;;;;5047838;28;20191;-76
2023/02/28 11:31:02;;;;;;;2.55;2.33;;;;;;;;;;5048927;28;20199;-74
2023/02/28 11:33:30;;;;;;;2.55;2.03;;;;;;;;;;5054008;28;20221;-73
2023/02/28 11:36:00;;;;;;;2.67;2.47;;;;;;;;;;5054577;28;20214;-73
2023/02/28 11:38:28;;;;;;;3.03;2.20;;;;;;;;;;5033906;28;20222;-72
2023/02/28 11:41:04;;;;;;;2.25;2.05;;;;;;;;;;5049349;28;20272;-72
2023/02/28 11:43:38;;;;;;;4.63;2.47;;;;;;;;;;5053865;28;20201;-73
2023/02/28 11:46:10;;;;;;;2.83;2.50;;;;;;;;;;5053693;28;20198;-75
2023/02/28 11:48:42;;;;;;;5.88;2.50;;;;;;;;;;5054132;28;20218;-75
2023/02/28 11:51:14;;;;;;;2.40;2.17;;;;;;;;;;5054032;28;20252;-75
2023/02/28 11:54:14;;;;;;;3.58;2.53;;;;;;;;;;5048443;28;20219;-75
2023/02/28 11:56:42;;;;;;;2.83;2.33;;;;;;;;;;4950102;29;20198;-74
2023/02/28 11:59:24;;;;;;;3.85;2.03;;;;;;;;;;4952716;28;20233;-74
2023/02/28 12:02:06;;;;;;;2.33;1.73;;;;;;;;;;5007322;28;20256;-73
2023/02/28 12:04:37;;;;;;;3.38;2.90;;;;;;;;;;5040762;28;20221;-76
2023/02/28 12:07:09;;;;;;;2.20;2.03;;;;;;;;;;5051786;28;20222;-76
2023/02/28 12:09:48;;;;;;;3.17;2.30;;;;;;;;;;5061550;22;20279;-73
2023/02/28 12:12:22;;;;;;;3.50;2.47;;;;;;;;;;5051277;28;20198;-74
2023/02/28 12:14:58;;;;;;;2.47;2.28;;;;;;;;;;5050383;28;20210;-72
2023/02/28 12:17:31;;;;;;;2.15;2.00;;;;;;;;;;5045319;28;20203;-75
2023/02/28 12:20:03;;;;;;;3.13;2.45;;;;;;;;;;5047405;28;20603;-73
2023/02/28 12:22:31;;;;;;;3.22;2.45;;;;;;;;;;5053270;28;20308;-72
2023/02/28 12:25:22;;;;;;;2.95;2.53;;;;;;;;;;5051257;28;20576;-72
2023/02/28 12:27:52;;;;;;;3.78;2.60;;;;;;;;;;5033929;28;20203;-72
2023/02/28 12:30:24;;;;;;;2.33;2.13;;;;;;;;;;5051067;28;20221;-71
2023/02/28 12:32:53;;;;;;;4.68;2.88;;;;;;;;;;5052335;28;20206;-72
2023/02/28 12:35:21;;;;;;;2.35;2.15;;;;;;;;;;5052898;28;20222;-73
2023/02/28 12:37:51;;;;;;;3.22;2.50;;;;;;;;;;5052713;28;20659;-71
2023/02/28 12:40:20;;;;;;;5.38;2.50;;;;;;;;;;5052219;28;20594;-72
2023/02/28 12:42:50;;;;;;;2.30;2.10;;;;;;;;;;5052595;28;20194;-72
2023/02/28 12:45:19;;;;;;;5.20;2.67;;;;;;;;;;5037386;28;20199;-74
2023/02/28 12:47:50;;;;;;;4.28;3.00;;;;;;;;;;5042682;28;20207;-74
2023/02/28 12:50:17;;;;;;;3.65;2.88;;;;;;;;;;5050281;28;20573;-72
2023/02/28 12:52:50;;;;;;;2.80;2.55;;;;;;;;;;5049498;28;20229;-72
2023/02/28 12:55:21;;;;;;;3.88;2.72;;;;;;;;;;5031431;28;20238;-73
2023/02/28 12:57:51;;;;;;;2.92;2.67;;;;;;;;;;5049663;28;20191;-73
2023/02/28 13:00:20;;;;;;;3.65;2.75;;;;;;;;;;5043665;28;20223;-74
2023/02/28 13:09:52;;;;;;;;;;;;;;;;;;;;;
2023/02/28 13:12:42;;;;;;;3.15;2.95;;;;;;;;;;4906116;29;20247;-71
2023/02/28 13:18:29;;;;;;;4.05;3.13;;;;;;;;;;4895786;29;20307;-70
2023/02/28 13:21:36;;;;;;;3.97;2.80;;;;;;;;;;5007000;28;20212;-71
2023/02/28 13:33:52;;;;;;;3.47;2.78;;;;;;;;;;4923881;28;20197;-71
2023/02/28 14:03:58;;;;;;;6.40;3.28;;;;;;;;;;5027994;28;20206;-72
2023/02/28 14:06:27;;;;;;;3.15;2.85;;;;;;;;;;5031890;28;20618;-73
2023/02/28 14:08:57;;;;;;;3.00;2.80;;;;;;;;;;5031148;28;20306;-75
2023/02/28 14:11:32;;;;;;;3.63;2.92;;;;;;;;;;5030601;28;20199;-75
2023/02/28 14:13:59;;;;;;;3.92;3.45;;;;;;;;;;5031655;28;20210;-75
2023/02/28 14:16:29;;;;;;;4.68;3.45;;;;;;;;;;5021392;28;20311;-76
2023/02/28 14:19:00;;;;;;;4.40;3.00;;;;;;;;;;5020743;28;20282;-76
2023/02/28 14:21:32;;;;;;;3.95;3.35;;;;;;;;;;5031333;28;20208;-76
2023/02/28 14:24:10;;;;;;;4.43;2.90;;;;;;;;;;5030285;28;20208;-74
2023/02/28 14:26:47;;;;;;;3.65;3.15;;;;;;;;;;5031708;28;20218;-76
2023/02/28 14:29:21;;;;;;;6.22;3.25;;;;;;;;;;5029034;28;20229;-73
2023/02/28 14:31:56;;;;;;;3.20;2.83;;;;;;;;;;5031032;28;20564;-73
2023/02/28 14:34:31;;;;;;;3.42;3.08;;;;;;;;;;5028772;28;20710;-74
2023/02/28 14:37:00;;;;;;;2.55;2.35;;;;;;;;;;5031677;28;20258;-71
2023/02/28 14:39:30;;;;;;;4.00;3.28;;;;;;;;;;5029059;28;20219;-73
2023/02/28 14:42:02;;;;;;;4.00;3.55;;;;;;;;;;5031042;28;20233;-72
2023/02/28 14:44:30;;;;;;;5.13;3.50;;;;;;;;;;5029123;28;20287;-73
2023/02/28 14:46:58;;;;;;;3.60;3.30;;;;;;;;;;5031144;28;20195;-75
2023/02/28 14:49:27;;;;;;;3.88;3.47;;;;;;;;;;5031080;28;20223;-75
2023/02/28 14:52:05;;;;;;;4.25;3.42;;;;;;;;;;5031029;28;20572;-75
2023/02/28 14:54:33;;;;;;;3.45;3.00;;;;;;;;;;5016045;28;20200;-75
2023/02/28 14:57:00;;;;;;;7.40;3.50;;;;;;;;;;5011492;28;20216;-76
2023/02/28 14:59:29;;;;;;;3.35;3.00;;;;;;;;;;5018076;28;20233;-73
2023/02/28 15:02:11;;;;;;;5.70;3.20;;;;;;;;;;5017125;28;20250;-74
2023/02/28 15:04:38;;;;;;;3.88;3.20;;;;;;;;;;5011474;28;20208;-75
2023/02/28 15:07:14;;;;;;;3.58;3.28;;;;;;;;;;5014380;28;20199;-75
2023/02/28 15:25:28;;;;;;;3.58;3.28;;;;;;;;;;4973574;28;20265;-72
2023/02/28 16:04:34;;;;;;;3.92;3.53;;;;;;;;;;4774853;29;20302;-72
2023/02/28 16:07:03;;;;;;;3.05;2.65;;;;;;;;;;4955692;28;20222;-74
2023/02/28 16:09:31;;;;;;;4.30;3.25;;;;;;;;;;5013052;28;20216;-72
2023/02/28 16:12:01;;;;;;;3.83;3.20;;;;;;;;;;5004299;28;20208;-73
2023/02/28 16:14:29;;;;;;;4.50;3.22;;;;;;;;;;5009848;28;20243;-76
2023/02/28 16:16:58;;;;;;;6.22;3.65;;;;;;;;;;5004645;28;20222;-72
2023/02/28 16:19:25;;;;;;;7.45;4.10;;;;;;;;;;5005465;28;20595;-74
2023/02/28 16:21:54;;;;;;;5.72;3.55;;;;;;;;;;5002023;28;20200;-72
2023/02/28 16:24:21;;;;;;;6.70;3.70;;;;;;;;;;4995119;28;20420;-75
2023/02/28 16:26:51;;;;;;;3.33;3.03;;;;;;;;;;5004256;28;20198;-77
2023/02/28 16:29:22;;;;;;;3.15;2.85;;;;;;;;;;4999924;28;20227;-73
2023/02/28 16:31:49;;;;;;;6.38;3.20;;;;;;;;;;5003184;28;20200;-74
2023/02/28 16:34:16;;;;;;;4.57;2.95;;;;;;;;;;5005371;28;20291;-74
2023/02/28 16:36:43;;;;;;;5.35;3.13;;;;;;;;;;5010880;28;20582;-73
2023/02/28 16:39:12;;;;;;;4.38;2.80;;;;;;;;;;4994612;28;20740;-72
2023/02/28 16:41:40;;;;;;;3.17;2.88;;;;;;;;;;5003556;28;20209;-72